createdAt,value
2023-02-11T00:01:27.975Z,29.65
2023-02-11T00:03:56.054Z,26.35
2023-02-11T00:06:24.685Z,22.15
2023-02-11T00:08:52.291Z,21.92
2023-02-11T00:11:21.374Z,23.60
2023-02-11T00:13:48.778Z,24.38
2023-02-11T00:16:19.945Z,21.42
2023-02-11T00:18:47.659Z,24.67
2023-02-11T00:21:20.349Z,23.13
2023-02-11T00:23:48.117Z,25.33
2023-02-11T00:26:27.060Z,26.65
2023-02-11T00:28:54.866Z,20.80
2023-02-11T00:31:24.130Z,25.38
2023-02-11T00:33:51.765Z,23.75
2023-02-11T00:36:28.634Z,25.05
2023-02-11T00:38:57.864Z,21.63
2023-02-11T00:41:26.069Z,25.85
2023-02-11T00:43:53.469Z,28.17
2023-02-11T00:46:21.574Z,25.63
2023-02-11T00:48:49.486Z,20.98
2023-02-11T00:51:16.981Z,30.33
2023-02-11T00:53:44.286Z,22.98
2023-02-11T00:56:11.597Z,22.58
2023-02-11T00:58:38.911Z,27.75
2023-02-11T01:01:06.795Z,25.85
2023-02-11T01:03:34.808Z,26.10
2023-02-11T01:06:06.448Z,28.50
2023-02-11T01:08:34.049Z,27.00
2023-02-11T01:11:05.523Z,25.80
2023-02-11T01:13:37.126Z,32.55
2023-02-11T01:16:07.546Z,28.50
2023-02-11T01:18:35.308Z,28.40
2023-02-11T01:21:02.724Z,21.77
2023-02-11T01:23:30.184Z,26.83
2023-02-11T01:25:57.681Z,26.23
2023-02-11T01:28:27.982Z,23.98
2023-02-11T01:30:59.073Z,24.15
2023-02-11T01:33:26.456Z,25.95
2023-02-11T01:35:53.885Z,29.75
2023-02-11T01:38:24.571Z,26.00
2023-02-11T01:41:00.016Z,27.67
2023-02-11T01:43:31.138Z,33.83
2023-02-11T01:48:43.777Z,28.00
2023-02-11T01:51:19.287Z,25.88
2023-02-11T01:54:08.243Z,27.85
2023-02-11T01:56:58.194Z,27.73
2023-02-11T01:59:40.940Z,25.38
2023-02-11T02:02:11.847Z,24.17
2023-02-11T02:04:46.512Z,21.80
2023-02-11T02:07:32.574Z,23.58
2023-02-11T02:10:05.917Z,31.48
2023-02-11T02:12:33.757Z,34.78
2023-02-11T02:15:25.614Z,29.63
2023-02-11T02:18:31.890Z,24.90
2023-02-11T02:21:24.080Z,20.35
2023-02-11T02:24:31.324Z,35.88
2023-02-11T02:27:10.477Z,21.73
2023-02-11T02:30:17.545Z,21.35
2023-02-11T02:33:16.681Z,26.75
2023-02-11T02:36:04.383Z,35.05
2023-02-11T02:38:37.858Z,25.52
2023-02-11T02:41:11.810Z,23.17
2023-02-11T02:43:45.124Z,21.77
2023-02-11T02:46:16.643Z,26.20
2023-02-11T02:48:46.709Z,25.13
2023-02-11T02:51:43.007Z,31.23
2023-02-11T02:54:41.045Z,31.17
2023-02-11T02:57:40.703Z,22.45
2023-02-11T03:00:49.357Z,24.48
2023-02-11T03:03:47.290Z,24.88
2023-02-11T03:06:51.407Z,29.55
2023-02-11T03:09:44.061Z,27.75
2023-02-11T03:12:13.664Z,24.25
2023-02-11T03:14:42.062Z,31.15
2023-02-11T03:17:10.411Z,35.13
2023-02-11T03:19:41.090Z,31.60
2023-02-11T03:22:17.260Z,31.05
2023-02-11T03:24:45.318Z,29.58
2023-02-11T03:27:29.084Z,28.85
2023-02-11T03:30:00.101Z,35.13
2023-02-11T03:32:32.812Z,33.50
2023-02-11T03:35:07.775Z,30.20
2023-02-11T03:37:43.668Z,34.00
2023-02-11T03:40:19.217Z,39.40
2023-02-11T03:42:52.687Z,35.88
2023-02-11T03:45:22.876Z,32.10
2023-02-11T03:47:56.221Z,33.05
2023-02-11T03:50:25.963Z,37.20
2023-02-11T03:52:54.476Z,35.20
2023-02-11T03:55:25.923Z,38.00
2023-02-11T03:57:53.349Z,28.45
2023-02-11T04:00:20.842Z,33.58
2023-02-11T04:02:48.179Z,32.40
2023-02-11T04:05:16.442Z,31.48
2023-02-11T04:07:43.719Z,31.73
2023-02-11T04:10:12.427Z,30.95
2023-02-11T04:12:39.817Z,30.75
2023-02-11T04:15:07.871Z,35.95
2023-02-11T04:17:35.433Z,30.20
2023-02-11T04:20:03.490Z,35.83
2023-02-11T04:22:31.267Z,36.38
2023-02-11T04:24:58.709Z,38.88
2023-02-11T04:27:26.121Z,39.95
2023-02-11T04:29:54.397Z,36.47
2023-02-11T04:32:21.783Z,41.35
2023-02-11T04:34:49.213Z,39.35
2023-02-11T04:37:16.527Z,50.53
2023-02-11T04:39:43.849Z,56.63
2023-02-11T04:42:11.323Z,41.50
2023-02-11T04:44:38.881Z,48.20
2023-02-11T04:47:06.857Z,37.47
2023-02-11T04:49:37.203Z,40.30
2023-02-11T04:52:05.099Z,39.42
2023-02-11T04:54:32.487Z,37.50
2023-02-11T04:56:59.826Z,38.95
2023-02-11T04:59:27.464Z,39.72
2023-02-11T05:01:55.953Z,43.83
2023-02-11T05:04:23.693Z,42.40
2023-02-11T05:06:51.063Z,39.47
2023-02-11T05:09:18.494Z,39.30
2023-02-11T05:11:45.944Z,30.38
2023-02-11T05:14:13.301Z,37.20
2023-02-11T05:16:40.723Z,36.30
2023-02-11T05:19:08.078Z,32.42
2023-02-11T05:21:36.591Z,38.17
2023-02-11T05:24:04.339Z,38.83
2023-02-11T05:26:32.444Z,41.05
2023-02-11T05:28:59.998Z,40.08
2023-02-11T05:31:27.454Z,35.80
2023-02-11T05:33:54.743Z,35.78
2023-02-11T05:36:22.128Z,35.90
2023-02-11T05:38:50.661Z,42.45
2023-02-11T05:41:18.025Z,37.67
2023-02-11T05:43:47.671Z,36.67
2023-02-11T05:46:15.015Z,32.75
2023-02-11T05:48:42.362Z,38.47
2023-02-11T05:51:09.709Z,35.35
2023-02-11T05:53:37.159Z,35.00
2023-02-11T05:56:07.387Z,36.85
2023-02-11T05:58:34.744Z,38.88
2023-02-11T06:01:02.154Z,42.60
2023-02-11T06:03:29.501Z,34.65
2023-02-11T06:05:56.843Z,43.60
2023-02-11T06:08:24.214Z,32.20
2023-02-11T06:10:51.607Z,39.15
2023-02-11T06:13:19.785Z,40.83
2023-02-11T06:15:56.372Z,34.05
2023-02-11T06:18:24.110Z,40.15
2023-02-11T06:20:51.512Z,31.50
2023-02-11T06:23:18.895Z,38.15
2023-02-11T06:25:46.270Z,32.33
2023-02-11T06:28:13.681Z,35.70
2023-02-11T06:30:41.733Z,41.35
2023-02-11T06:33:09.096Z,34.72
2023-02-11T06:35:39.003Z,34.10
2023-02-11T06:38:06.292Z,34.78
2023-02-11T06:40:33.733Z,36.67
2023-02-11T06:43:01.061Z,34.72
2023-02-11T06:45:28.498Z,44.33
2023-02-11T06:47:55.792Z,39.28
2023-02-11T06:50:23.202Z,41.42
2023-02-11T06:52:50.486Z,38.75
2023-02-11T06:55:17.895Z,35.58
2023-02-11T06:57:45.284Z,37.53
2023-02-11T07:00:13.475Z,37.63
2023-02-11T07:02:40.810Z,40.38
2023-02-11T07:05:08.673Z,42.25
2023-02-11T07:07:37.096Z,39.80
2023-02-11T07:10:05.821Z,51.83
2023-02-11T07:12:33.142Z,44.70
2023-02-11T07:15:00.608Z,49.92
2023-02-11T07:17:27.981Z,45.85
2023-02-11T07:19:55.410Z,48.47
2023-02-11T07:22:22.849Z,49.88
2023-02-11T07:24:50.537Z,44.80
2023-02-11T07:27:20.720Z,45.42
2023-02-11T07:29:48.757Z,46.35
2023-02-11T07:32:16.246Z,48.75
2023-02-11T07:34:43.619Z,48.50
2023-02-11T07:37:10.977Z,52.95
2023-02-11T07:39:38.416Z,51.72
2023-02-11T07:42:06.017Z,53.72
2023-02-11T07:44:33.419Z,44.63
2023-02-11T07:47:00.881Z,47.85
2023-02-11T07:49:28.718Z,49.88
2023-02-11T07:51:56.010Z,48.53
2023-02-11T07:54:23.408Z,48.53
2023-02-11T07:56:50.840Z,47.97
2023-02-11T07:59:18.389Z,43.35
2023-02-11T08:01:45.854Z,56.25
2023-02-11T08:04:13.277Z,53.90
2023-02-11T08:06:42.930Z,55.80
2023-02-11T08:09:16.905Z,50.63
2023-02-11T08:11:44.793Z,47.90
2023-02-11T08:14:12.417Z,45.45
2023-02-11T08:16:39.975Z,39.05
2023-02-11T08:19:11.833Z,44.08
2023-02-11T08:21:40.268Z,38.78
2023-02-11T08:24:07.899Z,37.25
2023-02-11T08:26:35.980Z,40.05
2023-02-11T08:29:10.670Z,37.80
2023-02-11T08:31:41.083Z,39.72
2023-02-11T08:34:11.623Z,35.75
2023-02-11T08:36:40.606Z,37.88
2023-02-11T08:39:19.291Z,36.38
2023-02-11T08:41:49.489Z,36.10
2023-02-11T08:44:18.548Z,32.60
2023-02-11T08:46:46.135Z,32.45
2023-02-11T08:49:14.200Z,28.30
2023-02-11T08:51:41.864Z,29.38
2023-02-11T08:54:10.044Z,31.90
2023-02-11T08:56:38.658Z,33.42
2023-02-11T08:59:07.224Z,37.80
2023-02-11T09:01:35.005Z,29.23
2023-02-11T09:04:02.499Z,39.10
2023-02-11T09:06:29.929Z,32.80
2023-02-11T09:08:58.261Z,36.20
2023-02-11T09:11:35.778Z,36.08
2023-02-11T09:14:04.761Z,41.03
2023-02-11T09:16:35.755Z,37.50
2023-02-11T09:19:04.803Z,44.10
2023-02-11T09:21:33.062Z,33.40
2023-02-11T09:24:00.610Z,31.08
2023-02-11T09:26:32.785Z,36.42
2023-02-11T09:29:01.155Z,31.25
2023-02-11T09:31:30.663Z,34.70
2023-02-11T09:34:01.851Z,33.13
2023-02-11T09:36:31.728Z,31.92
2023-02-11T09:39:00.940Z,28.67
2023-02-11T09:41:58.502Z,32.03
2023-02-11T09:44:29.476Z,31.85
2023-02-11T09:47:00.363Z,35.13
2023-02-11T09:49:47.616Z,33.05
2023-02-11T09:52:33.314Z,31.08
2023-02-11T09:55:03.245Z,37.53
2023-02-11T09:57:36.514Z,37.05
2023-02-11T10:00:18.781Z,35.45
2023-02-11T10:05:43.159Z,33.83
2023-02-11T10:08:21.288Z,37.60
2023-02-11T10:11:04.156Z,37.67
2023-02-11T10:14:01.421Z,35.47
2023-02-11T10:16:44.949Z,36.35
2023-02-11T10:19:15.064Z,32.78
2023-02-11T10:21:58.489Z,32.30
2023-02-11T10:24:29.030Z,33.85
2023-02-11T10:26:59.355Z,37.03
2023-02-11T10:29:40.628Z,30.05
2023-02-11T10:32:24.923Z,33.70
2023-02-11T10:34:54.312Z,35.70
2023-02-11T10:37:21.676Z,39.03
2023-02-11T10:39:49.040Z,38.30
2023-02-11T10:42:19.380Z,38.63
2023-02-11T10:45:05.002Z,33.75
2023-02-11T10:47:37.949Z,29.92
2023-02-11T10:50:40.521Z,30.65
2023-02-11T10:55:52.423Z,33.40
2023-02-11T10:58:26.368Z,34.50
2023-02-11T11:00:58.976Z,35.33
2023-02-11T11:03:31.254Z,31.42
2023-02-11T11:06:01.238Z,37.47
2023-02-11T11:08:40.401Z,38.80
2023-02-11T11:11:13.867Z,41.50
2023-02-11T11:13:54.185Z,46.58
2023-02-11T11:16:27.104Z,45.85
2023-02-11T11:19:07.645Z,41.05
2023-02-11T11:21:43.094Z,38.35
2023-02-11T11:24:40.069Z,40.53
2023-02-11T11:27:16.694Z,32.67
2023-02-11T11:29:51.353Z,37.30
2023-02-11T11:32:33.586Z,32.33
2023-02-11T11:35:10.061Z,37.42
2023-02-11T11:37:39.165Z,34.88
2023-02-11T11:40:22.623Z,40.67
2023-02-11T11:43:07.347Z,34.42
2023-02-11T11:45:34.787Z,31.45
2023-02-11T11:48:14.070Z,38.90
2023-02-11T11:50:45.286Z,35.80
2023-02-11T11:53:20.785Z,34.10
2023-02-11T11:56:00.206Z,36.20
2023-02-11T11:58:29.006Z,39.05
2023-02-11T12:01:08.285Z,37.85
2023-02-11T12:04:23.353Z,39.28
2023-02-11T12:07:25.745Z,41.88
2023-02-11T12:09:58.905Z,34.20
2023-02-11T12:13:05.951Z,37.42
2023-02-11T12:15:44.501Z,39.53
2023-02-11T12:18:45.584Z,37.05
2023-02-11T12:21:33.284Z,45.47
2023-02-11T12:24:30.086Z,45.63
2023-02-11T12:27:13.231Z,40.55
2023-02-11T12:29:55.004Z,39.25
2023-02-11T12:32:40.836Z,39.83
2023-02-11T12:35:32.704Z,34.42
2023-02-11T12:38:19.053Z,39.95
2023-02-11T12:40:59.076Z,37.70
2023-02-11T12:43:38.406Z,33.45
2023-02-11T12:46:30.126Z,31.05
2023-02-11T12:49:20.289Z,34.38
2023-02-11T12:51:58.293Z,31.08
2023-02-11T12:54:40.623Z,36.38
2023-02-11T12:57:15.063Z,35.47
2023-02-11T12:59:50.053Z,32.85
2023-02-11T13:02:41.492Z,35.22
2023-02-11T13:05:27.082Z,34.03
2023-02-11T13:08:02.961Z,37.58
2023-02-11T13:10:43.071Z,31.92
2023-02-11T13:13:37.224Z,33.58
2023-02-11T13:16:20.357Z,28.45
2023-02-11T13:19:06.606Z,31.42
2023-02-11T13:21:43.976Z,32.67
2023-02-11T13:24:19.790Z,27.08
2023-02-11T13:27:20.945Z,32.08
2023-02-11T13:30:11.504Z,34.08
2023-02-11T13:32:54.009Z,26.33
2023-02-11T13:35:39.635Z,22.60
2023-02-11T13:38:28.373Z,25.45
2023-02-11T13:41:04.430Z,21.85
2023-02-11T13:43:34.300Z,15.68
2023-02-11T13:46:11.820Z,12.88
2023-02-11T13:48:46.668Z,14.07
2023-02-11T13:51:17.825Z,14.50
2023-02-11T13:53:53.460Z,18.23
2023-02-11T13:56:31.501Z,17.38
2023-02-11T13:59:02.294Z,16.05
2023-02-11T14:02:06.896Z,18.92
2023-02-11T14:04:53.189Z,18.13
2023-02-11T14:07:49.269Z,23.63
2023-02-11T14:10:41.596Z,21.42
2023-02-11T14:16:36.460Z,24.77
2023-02-11T14:19:06.207Z,21.58
2023-02-11T14:21:41.477Z,19.98
2023-02-11T14:24:15.640Z,23.08
2023-02-11T14:27:04.957Z,23.25
2023-02-11T14:29:51.004Z,24.83
2023-02-11T14:32:49.160Z,19.83
2023-02-11T14:35:39.447Z,23.33
2023-02-11T14:38:43.699Z,20.90
2023-02-11T14:41:19.606Z,22.95
2023-02-11T14:43:51.599Z,22.98
2023-02-11T14:46:24.278Z,23.77
2023-02-11T14:48:55.334Z,24.65
2023-02-11T14:51:31.296Z,24.73
2023-02-11T14:54:23.526Z,26.25
2023-02-11T14:57:17.213Z,27.00
2023-02-11T15:00:05.691Z,24.42
2023-02-11T15:02:36.980Z,29.15
2023-02-11T15:05:17.336Z,26.70
2023-02-11T15:07:56.999Z,28.50
2023-02-11T15:10:35.273Z,33.72
2023-02-11T15:13:04.760Z,26.67
2023-02-11T15:15:33.038Z,27.33
2023-02-11T15:18:03.309Z,33.88
2023-02-11T15:20:33.596Z,31.67
2023-02-11T15:23:04.169Z,27.48
2023-02-11T15:25:34.033Z,28.95
2023-02-11T15:28:28.881Z,32.72
2023-02-11T15:30:58.867Z,30.20
2023-02-11T15:33:26.384Z,34.72
2023-02-11T15:35:53.745Z,26.95
2023-02-11T15:38:21.049Z,31.13
2023-02-11T15:41:00.852Z,26.80
2023-02-11T15:43:46.278Z,35.38
2023-02-11T15:46:39.807Z,33.17
2023-02-11T15:49:19.164Z,34.05
2023-02-11T15:51:47.118Z,34.53
2023-02-11T15:54:30.001Z,32.00
2023-02-11T15:57:07.527Z,30.63
2023-02-11T15:59:41.592Z,34.08
2023-02-11T16:02:25.673Z,44.55
2023-02-11T16:04:58.904Z,39.47
2023-02-11T16:07:38.529Z,39.88
2023-02-11T16:10:29.943Z,40.55
2023-02-11T16:13:06.435Z,38.60
2023-02-11T16:15:33.899Z,48.08
2023-02-11T16:18:12.783Z,42.40
2023-02-11T16:20:41.980Z,40.60
2023-02-11T16:23:22.018Z,48.47
2023-02-11T16:25:54.845Z,44.40
2023-02-11T16:28:22.397Z,42.67
2023-02-11T16:30:54.178Z,42.50
2023-02-11T16:35:49.374Z,45.45
2023-02-11T16:38:19.577Z,43.30
2023-02-11T16:40:49.350Z,36.17
2023-02-11T16:43:20.281Z,43.63
2023-02-11T16:45:48.229Z,40.60
2023-02-11T16:48:19.208Z,40.72
2023-02-11T16:50:52.224Z,42.33
2023-02-11T16:53:24.188Z,41.03
2023-02-11T16:55:54.219Z,40.17
2023-02-11T16:58:21.676Z,41.70
2023-02-11T17:00:49.651Z,36.90
2023-02-11T17:03:26.145Z,44.42
2023-02-11T17:05:55.932Z,39.92
2023-02-11T17:08:23.540Z,41.40
2023-02-11T17:10:51.184Z,39.15
2023-02-11T17:13:18.879Z,45.97
2023-02-11T17:15:46.258Z,48.08
2023-02-11T17:18:16.897Z,44.13
2023-02-11T17:20:44.288Z,41.17
2023-02-11T17:23:11.666Z,42.65
2023-02-11T17:25:39.023Z,42.92
2023-02-11T17:28:08.248Z,49.63
2023-02-11T17:30:35.787Z,43.42
2023-02-11T17:33:03.147Z,46.13
2023-02-11T17:35:30.478Z,44.17
2023-02-11T17:37:58.721Z,46.13
2023-02-11T17:40:26.404Z,45.83
2023-02-11T17:42:53.779Z,46.03
2023-02-11T17:45:22.469Z,43.17
2023-02-11T17:47:49.956Z,42.42
2023-02-11T17:50:17.467Z,39.40
2023-02-11T17:52:45.035Z,38.13
2023-02-11T17:55:12.392Z,40.17
2023-02-11T17:57:40.451Z,45.15
2023-02-11T18:00:09.515Z,43.90
2023-02-11T18:02:45.366Z,45.33
2023-02-11T18:05:12.709Z,42.95
2023-02-11T18:07:40.431Z,47.33
2023-02-11T18:10:08.720Z,43.70
2023-02-11T18:12:36.177Z,47.88
2023-02-11T18:15:03.626Z,53.65
2023-02-11T18:17:31.067Z,46.63
2023-02-11T18:19:58.777Z,41.92
2023-02-11T18:22:26.747Z,48.67
2023-02-11T18:24:55.113Z,45.15
2023-02-11T18:27:22.578Z,40.88
2023-02-11T18:29:50.263Z,38.70
2023-02-11T18:32:17.610Z,43.55
2023-02-11T18:34:44.893Z,36.92
2023-02-11T18:37:14.299Z,38.33
2023-02-11T18:39:42.349Z,34.30
2023-02-11T18:42:10.327Z,39.97
2023-02-11T18:44:37.703Z,47.00
2023-02-11T18:47:05.079Z,41.10
2023-02-11T18:49:36.199Z,41.67
2023-02-11T18:52:03.935Z,45.47
2023-02-11T18:54:31.288Z,50.38
2023-02-11T18:56:58.672Z,43.58
2023-02-11T18:59:25.997Z,45.28
2023-02-11T19:01:53.344Z,41.30
2023-02-11T19:04:23.341Z,41.00
2023-02-11T19:06:50.933Z,47.78
2023-02-11T19:09:19.982Z,49.15
2023-02-11T19:11:47.963Z,47.80
2023-02-11T19:14:18.364Z,41.33
2023-02-11T19:16:46.425Z,45.33
2023-02-11T19:19:14.167Z,43.85
2023-02-11T19:21:43.780Z,40.45
2023-02-11T19:24:12.823Z,39.92
2023-02-11T19:26:40.178Z,43.83
2023-02-11T19:29:07.797Z,47.88
2023-02-11T19:31:35.369Z,38.53
2023-02-11T19:34:03.455Z,46.22
2023-02-11T19:36:31.030Z,51.38
2023-02-11T19:39:02.117Z,49.50
2023-02-11T19:41:30.652Z,48.50
2023-02-11T19:43:58.037Z,53.72
2023-02-11T19:46:28.115Z,51.85
2023-02-11T19:48:55.611Z,44.67
2023-02-11T19:51:22.955Z,53.80
2023-02-11T19:53:51.275Z,51.97
2023-02-11T19:56:20.827Z,54.50
2023-02-11T19:58:48.324Z,46.10
2023-02-11T20:01:18.901Z,42.38
2023-02-11T20:03:49.979Z,47.08
2023-02-11T20:06:23.278Z,56.45
2023-02-11T20:08:59.110Z,49.00
2023-02-11T20:11:28.880Z,46.70
2023-02-11T20:13:57.282Z,46.55
2023-02-11T20:16:44.570Z,42.80
2023-02-11T20:19:17.818Z,49.17
2023-02-11T20:21:47.560Z,50.35
2023-02-11T20:24:17.472Z,57.60
2023-02-11T20:26:46.914Z,57.88
2023-02-11T20:29:15.930Z,53.88
2023-02-11T20:31:43.577Z,59.42
2023-02-11T20:34:12.123Z,58.78
2023-02-11T20:36:40.635Z,53.38
2023-02-11T20:39:08.987Z,51.20
2023-02-11T20:41:39.857Z,57.35
2023-02-11T20:44:09.979Z,52.00
2023-02-11T20:46:40.332Z,57.30
2023-02-11T20:49:08.810Z,56.55
2023-02-11T20:51:37.351Z,60.45
2023-02-11T20:54:06.332Z,68.07
2023-02-11T20:56:36.814Z,68.63
2023-02-11T20:59:05.829Z,65.68
2023-02-11T21:01:42.474Z,60.40
2023-02-11T21:04:13.182Z,55.67
2023-02-11T21:06:45.377Z,60.15
2023-02-11T21:09:22.072Z,66.47
2023-02-11T21:11:51.603Z,65.90
2023-02-11T21:14:19.970Z,65.63
2023-02-11T21:16:48.181Z,62.28
2023-02-11T21:19:18.497Z,64.55
2023-02-11T21:21:45.927Z,58.40
2023-02-11T21:24:13.389Z,70.85
2023-02-11T21:26:40.898Z,60.83
2023-02-11T21:29:08.714Z,63.70
2023-02-11T21:31:37.849Z,67.40
2023-02-11T21:34:06.362Z,65.55
2023-02-11T21:36:34.148Z,65.05
2023-02-11T21:39:03.816Z,58.90
2023-02-11T21:41:31.295Z,66.18
2023-02-11T21:43:58.603Z,62.72
2023-02-11T21:46:28.990Z,65.55
2023-02-11T21:48:57.412Z,61.92
2023-02-11T21:51:26.248Z,68.25
2023-02-11T21:53:59.244Z,66.57
2023-02-11T21:56:28.228Z,61.35
2023-02-11T21:58:57.606Z,65.72
2023-02-11T22:01:30.965Z,65.15
2023-02-11T22:03:58.898Z,61.03
2023-02-11T22:06:31.080Z,56.33
2023-02-11T22:09:01.585Z,66.22
2023-02-11T22:11:31.616Z,69.20
2023-02-11T22:13:59.291Z,66.82
2023-02-11T22:16:27.669Z,65.63
2023-02-11T22:18:58.374Z,69.88
2023-02-11T22:21:25.988Z,66.80
2023-02-11T22:23:54.591Z,68.90
2023-02-11T22:26:23.727Z,68.88
2023-02-11T22:28:52.021Z,76.82
2023-02-11T22:31:22.359Z,68.63
2023-02-11T22:33:50.065Z,66.82
2023-02-11T22:36:26.948Z,66.55
2023-02-11T22:38:54.949Z,70.85
2023-02-11T22:41:23.199Z,68.82
2023-02-11T22:43:50.534Z,63.33
2023-02-11T22:46:19.586Z,71.95
2023-02-11T22:48:48.962Z,71.07
2023-02-11T22:51:19.760Z,63.45
2023-02-11T22:53:57.216Z,66.40
2023-02-11T22:56:24.899Z,61.85
2023-02-11T22:58:55.764Z,58.22
2023-02-11T23:01:23.271Z,55.65
2023-02-11T23:03:50.680Z,66.25
2023-02-11T23:06:18.180Z,63.67
2023-02-11T23:08:46.420Z,64.80
2023-02-11T23:11:20.197Z,58.97
2023-02-11T23:13:49.773Z,69.85
2023-02-11T23:16:19.650Z,70.43
2023-02-11T23:18:48.439Z,71.43
2023-02-11T23:21:22.177Z,65.65
2023-02-11T23:23:53.742Z,57.35
2023-02-11T23:26:21.238Z,52.15
2023-02-11T23:28:48.603Z,61.28
2023-02-11T23:31:23.681Z,52.95
2023-02-11T23:33:51.615Z,51.95
2023-02-11T23:36:21.091Z,62.28
2023-02-11T23:38:48.900Z,58.55
2023-02-11T23:41:17.145Z,48.15
2023-02-11T23:43:44.585Z,60.78
2023-02-11T23:46:12.032Z,57.47
2023-02-11T23:48:41.315Z,61.25
2023-02-11T23:51:11.665Z,52.88
2023-02-11T23:53:39.538Z,55.90
2023-02-11T23:56:13.988Z,55.58
2023-02-11T23:58:41.382Z,50.28
